sensor_id;sensor_type;location;lat;lon;timestamp;P1;durP1;ratioP1;P2;durP2;ratioP2
27269;SDS011;14769;56.934;24.176;2022-09-09T00:00:32;2.67;;;1.10;;
27269;SDS011;14769;56.934;24.176;2022-09-09T00:01:54;2.05;;;0.85;;
27269;SDS011;14769;56.934;24.176;2022-09-09T00:04:14;1.90;;;1.00;;
27269;SDS011;14769;56.934;24.176;2022-09-09T00:05:39;4.28;;;1.42;;
27269;SDS011;14769;56.934;24.176;2022-09-09T00:07:00;2.30;;;0.80;;
27269;SDS011;14769;56.934;24.176;2022-09-09T00:08:24;3.22;;;0.70;;
27269;SDS011;14769;56.934;24.176;2022-09-09T00:10:21;2.63;;;0.80;;
27269;SDS011;14769;56.934;24.176;2022-09-09T00:11:04;1.80;;;0.70;;
27269;SDS011;14769;56.934;24.176;2022-09-09T00:12:11;5.22;;;0.98;;
27269;SDS011;14769;56.934;24.176;2022-09-09T00:13:19;1.80;;;0.70;;
27269;SDS011;14769;56.934;24.176;2022-09-09T00:14:37;1.80;;;0.70;;
27269;SDS011;14769;56.934;24.176;2022-09-09T00:16:10;2.38;;;1.00;;
27269;SDS011;14769;56.934;24.176;2022-09-09T00:19:01;3.47;;;0.93;;
27269;SDS011;14769;56.934;24.176;2022-09-09T00:20:39;2.25;;;0.80;;
27269;SDS011;14769;56.934;24.176;2022-09-09T00:22:03;3.35;;;1.15;;
27269;SDS011;14769;56.934;24.176;2022-09-09T00:23:25;2.72;;;0.98;;
27269;SDS011;14769;56.934;24.176;2022-09-09T00:26:21;4.47;;;0.90;;
27269;SDS011;14769;56.934;24.176;2022-09-09T00:27:45;1.55;;;0.70;;
27269;SDS011;14769;56.934;24.176;2022-09-09T00:30:25;1.83;;;0.80;;
27269;SDS011;14769;56.934;24.176;2022-09-09T00:31:31;1.52;;;0.98;;
27269;SDS011;14769;56.934;24.176;2022-09-09T00:32:33;2.83;;;0.80;;
27269;SDS011;14769;56.934;24.176;2022-09-09T00:33:37;1.80;;;0.70;;
27269;SDS011;14769;56.934;24.176;2022-09-09T00:34:48;2.78;;;0.85;;
27269;SDS011;14769;56.934;24.176;2022-09-09T00:35:57;3.83;;;1.05;;
27269;SDS011;14769;56.934;24.176;2022-09-09T00:36:59;3.70;;;1.05;;
27269;SDS011;14769;56.934;24.176;2022-09-09T00:38:14;1.45;;;1.00;;
27269;SDS011;14769;56.934;24.176;2022-09-09T00:39:37;1.67;;;0.77;;
27269;SDS011;14769;56.934;24.176;2022-09-09T00:40:46;1.10;;;0.80;;
27269;SDS011;14769;56.934;24.176;2022-09-09T00:44:33;3.28;;;1.10;;
27269;SDS011;14769;56.934;24.176;2022-09-09T00:45:52;4.32;;;1.08;;
27269;SDS011;14769;56.934;24.176;2022-09-09T00:50:39;6.13;;;1.10;;
27269;SDS011;14769;56.934;24.176;2022-09-09T00:52:07;1.25;;;0.80;;
27269;SDS011;14769;56.934;24.176;2022-09-09T00:56:47;1.30;;;1.00;;
27269;SDS011;14769;56.934;24.176;2022-09-09T00:57:29;2.47;;;0.95;;
27269;SDS011;14769;56.934;24.176;2022-09-09T00:58:35;3.05;;;1.08;;
27269;SDS011;14769;56.934;24.176;2022-09-09T00:59:42;4.80;;;0.90;;
27269;SDS011;14769;56.934;24.176;2022-09-09T01:00:51;2.38;;;1.10;;
27269;SDS011;14769;56.934;24.176;2022-09-09T01:02:13;2.35;;;0.95;;
27269;SDS011;14769;56.934;24.176;2022-09-09T01:04:38;1.90;;;0.93;;
27269;SDS011;14769;56.934;24.176;2022-09-09T01:07:09;1.35;;;1.05;;
27269;SDS011;14769;56.934;24.176;2022-09-09T01:09:42;5.25;;;1.13;;
27269;SDS011;14769;56.934;24.176;2022-09-09T01:10:53;2.80;;;1.00;;
27269;SDS011;14769;56.934;24.176;2022-09-09T01:13:21;3.70;;;0.70;;
27269;SDS011;14769;56.934;24.176;2022-09-09T01:16:40;4.72;;;1.00;;
27269;SDS011;14769;56.934;24.176;2022-09-09T01:18:51;2.30;;;1.00;;
27269;SDS011;14769;56.934;24.176;2022-09-09T01:20:02;3.70;;;1.00;;
27269;SDS011;14769;56.934;24.176;2022-09-09T01:22:50;3.80;;;1.00;;
27269;SDS011;14769;56.934;24.176;2022-09-09T01:24:08;3.42;;;1.13;;
27269;SDS011;14769;56.934;24.176;2022-09-09T01:25:30;2.53;;;0.90;;
27269;SDS011;14769;56.934;24.176;2022-09-09T01:26:45;2.40;;;0.98;;
27269;SDS011;14769;56.934;24.176;2022-09-09T01:27:49;5.40;;;1.05;;
27269;SDS011;14769;56.934;24.176;2022-09-09T01:28:55;2.63;;;1.00;;
27269;SDS011;14769;56.934;24.176;2022-09-09T01:29:57;2.60;;;1.08;;
27269;SDS011;14769;56.934;24.176;2022-09-09T01:31:01;2.70;;;1.00;;
27269;SDS011;14769;56.934;24.176;2022-09-09T01:33:15;2.78;;;0.90;;
27269;SDS011;14769;56.934;24.176;2022-09-09T01:34:19;2.78;;;1.00;;
27269;SDS011;14769;56.934;24.176;2022-09-09T01:37:36;1.45;;;0.90;;
27269;SDS011;14769;56.934;24.176;2022-09-09T01:38:38;2.30;;;1.10;;
27269;SDS011;14769;56.934;24.176;2022-09-09T01:39:41;1.88;;;0.85;;
27269;SDS011;14769;56.934;24.176;2022-09-09T01:40:45;2.05;;;0.82;;
27269;SDS011;14769;56.934;24.176;2022-09-09T01:41:48;1.52;;;0.95;;
27269;SDS011;14769;56.934;24.176;2022-09-09T01:42:50;2.28;;;0.80;;
27269;SDS011;14769;56.934;24.176;2022-09-09T01:43:53;2.28;;;0.90;;
27269;SDS011;14769;56.934;24.176;2022-09-09T01:44:56;2.67;;;0.80;;
27269;SDS011;14769;56.934;24.176;2022-09-09T01:45:59;1.67;;;1.00;;
27269;SDS011;14769;56.934;24.176;2022-09-09T01:47:02;2.15;;;0.98;;
27269;SDS011;14769;56.934;24.176;2022-09-09T01:48:05;2.20;;;0.90;;
27269;SDS011;14769;56.934;24.176;2022-09-09T01:49:08;2.78;;;1.00;;
27269;SDS011;14769;56.934;24.176;2022-09-09T01:50:10;1.38;;;0.88;;
27269;SDS011;14769;56.934;24.176;2022-09-09T01:51:16;0.70;;;0.70;;
27269;SDS011;14769;56.934;24.176;2022-09-09T01:52:18;2.10;;;1.13;;
27269;SDS011;14769;56.934;24.176;2022-09-09T01:53:21;1.42;;;1.00;;
27269;SDS011;14769;56.934;24.176;2022-09-09T01:54:26;6.57;;;1.25;;
27269;SDS011;14769;56.934;24.176;2022-09-09T01:55:33;5.70;;;1.40;;
27269;SDS011;14769;56.934;24.176;2022-09-09T01:58:32;3.67;;;1.10;;
27269;SDS011;14769;56.934;24.176;2022-09-09T01:59:57;1.63;;;0.90;;
27269;SDS011;14769;56.934;24.176;2022-09-09T02:01:36;2.38;;;1.00;;
27269;SDS011;14769;56.934;24.176;2022-09-09T02:04:17;3.90;;;0.88;;
27269;SDS011;14769;56.934;24.176;2022-09-09T02:06:03;3.58;;;0.93;;
27269;SDS011;14769;56.934;24.176;2022-09-09T02:08:30;1.42;;;0.80;;
27269;SDS011;14769;56.934;24.176;2022-09-09T02:09:41;1.67;;;0.93;;
27269;SDS011;14769;56.934;24.176;2022-09-09T02:12:00;3.45;;;1.13;;
27269;SDS011;14769;56.934;24.176;2022-09-09T02:13:14;3.03;;;1.30;;
27269;SDS011;14769;56.934;24.176;2022-09-09T02:14:23;3.33;;;1.25;;
27269;SDS011;14769;56.934;24.176;2022-09-09T02:15:39;1.95;;;1.25;;
27269;SDS011;14769;56.934;24.176;2022-09-09T02:16:50;3.42;;;1.10;;
27269;SDS011;14769;56.934;24.176;2022-09-09T02:17:59;1.98;;;1.08;;
27269;SDS011;14769;56.934;24.176;2022-09-09T02:19:17;1.20;;;0.93;;
27269;SDS011;14769;56.934;24.176;2022-09-09T02:20:26;1.67;;;1.10;;
27269;SDS011;14769;56.934;24.176;2022-09-09T02:21:35;4.90;;;1.02;;
27269;SDS011;14769;56.934;24.176;2022-09-09T02:22:38;3.47;;;0.82;;
27269;SDS011;14769;56.934;24.176;2022-09-09T02:23:43;4.78;;;1.50;;
27269;SDS011;14769;56.934;24.176;2022-09-09T02:24:50;1.88;;;1.05;;
27269;SDS011;14769;56.934;24.176;2022-09-09T02:25:55;3.17;;;1.08;;
27269;SDS011;14769;56.934;24.176;2022-09-09T02:26:59;1.23;;;0.77;;
27269;SDS011;14769;56.934;24.176;2022-09-09T02:28:06;3.20;;;1.02;;
27269;SDS011;14769;56.934;24.176;2022-09-09T02:29:12;3.47;;;0.90;;
27269;SDS011;14769;56.934;24.176;2022-09-09T02:30:18;2.65;;;0.90;;
27269;SDS011;14769;56.934;24.176;2022-09-09T02:31:21;1.95;;;1.02;;
27269;SDS011;14769;56.934;24.176;2022-09-09T02:32:25;1.63;;;0.93;;
27269;SDS011;14769;56.934;24.176;2022-09-09T02:33:30;1.95;;;1.10;;
27269;SDS011;14769;56.934;24.176;2022-09-09T02:34:38;1.95;;;0.80;;
27269;SDS011;14769;56.934;24.176;2022-09-09T02:35:43;0.90;;;0.73;;
27269;SDS011;14769;56.934;24.176;2022-09-09T02:36:47;3.70;;;0.98;;
27269;SDS011;14769;56.934;24.176;2022-09-09T02:37:53;1.33;;;0.90;;
27269;SDS011;14769;56.934;24.176;2022-09-09T02:38:58;1.73;;;0.98;;
27269;SDS011;14769;56.934;24.176;2022-09-09T02:40:02;4.05;;;1.00;;
27269;SDS011;14769;56.934;24.176;2022-09-09T02:41:05;2.28;;;1.10;;
27269;SDS011;14769;56.934;24.176;2022-09-09T02:42:07;1.33;;;1.00;;
27269;SDS011;14769;56.934;24.176;2022-09-09T02:43:09;2.03;;;1.10;;
27269;SDS011;14769;56.934;24.176;2022-09-09T02:44:12;3.28;;;1.08;;
27269;SDS011;14769;56.934;24.176;2022-09-09T02:45:16;1.75;;;0.90;;
27269;SDS011;14769;56.934;24.176;2022-09-09T02:49:10;2.72;;;0.95;;
27269;SDS011;14769;56.934;24.176;2022-09-09T02:50:23;4.60;;;1.10;;
27269;SDS011;14769;56.934;24.176;2022-09-09T02:55:11;3.80;;;1.10;;
27269;SDS011;14769;56.934;24.176;2022-09-09T02:56:34;3.15;;;1.10;;
27269;SDS011;14769;56.934;24.176;2022-09-09T02:57:41;1.23;;;0.82;;
27269;SDS011;14769;56.934;24.176;2022-09-09T02:58:46;2.70;;;1.15;;
27269;SDS011;14769;56.934;24.176;2022-09-09T02:59:48;2.83;;;1.35;;
27269;SDS011;14769;56.934;24.176;2022-09-09T03:00:51;4.43;;;1.02;;
27269;SDS011;14769;56.934;24.176;2022-09-09T03:01:54;4.65;;;0.90;;
27269;SDS011;14769;56.934;24.176;2022-09-09T03:02:59;3.35;;;1.00;;
27269;SDS011;14769;56.934;24.176;2022-09-09T03:04:02;2.47;;;1.10;;
27269;SDS011;14769;56.934;24.176;2022-09-09T03:05:06;3.50;;;1.15;;
27269;SDS011;14769;56.934;24.176;2022-09-09T03:06:08;1.45;;;0.85;;
27269;SDS011;14769;56.934;24.176;2022-09-09T03:07:11;2.58;;;1.08;;
27269;SDS011;14769;56.934;24.176;2022-09-09T03:08:13;5.55;;;1.10;;
27269;SDS011;14769;56.934;24.176;2022-09-09T03:09:15;1.35;;;1.00;;
27269;SDS011;14769;56.934;24.176;2022-09-09T03:10:17;1.33;;;1.20;;
27269;SDS011;14769;56.934;24.176;2022-09-09T03:11:19;1.50;;;1.20;;
27269;SDS011;14769;56.934;24.176;2022-09-09T03:12:22;5.22;;;1.10;;
27269;SDS011;14769;56.934;24.176;2022-09-09T03:13:25;1.52;;;0.90;;
27269;SDS011;14769;56.934;24.176;2022-09-09T03:14:27;2.95;;;1.15;;
27269;SDS011;14769;56.934;24.176;2022-09-09T03:15:29;2.97;;;1.15;;
27269;SDS011;14769;56.934;24.176;2022-09-09T03:16:32;1.63;;;1.20;;
27269;SDS011;14769;56.934;24.176;2022-09-09T03:17:39;2.63;;;1.10;;
27269;SDS011;14769;56.934;24.176;2022-09-09T03:18:44;1.92;;;1.38;;
27269;SDS011;14769;56.934;24.176;2022-09-09T03:19:47;2.88;;;1.27;;
27269;SDS011;14769;56.934;24.176;2022-09-09T03:20:53;5.28;;;1.30;;
27269;SDS011;14769;56.934;24.176;2022-09-09T03:21:59;3.70;;;1.30;;
27269;SDS011;14769;56.934;24.176;2022-09-09T03:23:02;2.22;;;1.45;;
27269;SDS011;14769;56.934;24.176;2022-09-09T03:24:04;2.58;;;1.48;;
27269;SDS011;14769;56.934;24.176;2022-09-09T03:25:08;1.70;;;1.30;;
27269;SDS011;14769;56.934;24.176;2022-09-09T03:26:10;4.97;;;1.20;;
27269;SDS011;14769;56.934;24.176;2022-09-09T03:27:15;3.03;;;1.10;;
27269;SDS011;14769;56.934;24.176;2022-09-09T03:28:19;3.22;;;1.10;;
27269;SDS011;14769;56.934;24.176;2022-09-09T03:29:25;4.65;;;1.00;;
27269;SDS011;14769;56.934;24.176;2022-09-09T03:30:29;1.40;;;1.00;;
27269;SDS011;14769;56.934;24.176;2022-09-09T03:31:32;1.48;;;1.10;;
27269;SDS011;14769;56.934;24.176;2022-09-09T03:32:35;2.80;;;1.15;;
27269;SDS011;14769;56.934;24.176;2022-09-09T03:33:38;5.50;;;1.30;;
27269;SDS011;14769;56.934;24.176;2022-09-09T03:34:42;1.15;;;1.05;;
27269;SDS011;14769;56.934;24.176;2022-09-09T03:35:48;3.47;;;1.20;;
27269;SDS011;14769;56.934;24.176;2022-09-09T03:36:50;2.38;;;1.10;;
27269;SDS011;14769;56.934;24.176;2022-09-09T03:37:52;4.05;;;1.30;;
27269;SDS011;14769;56.934;24.176;2022-09-09T03:38:56;1.73;;;1.15;;
27269;SDS011;14769;56.934;24.176;2022-09-09T03:39:59;2.45;;;0.95;;
27269;SDS011;14769;56.934;24.176;2022-09-09T03:41:01;3.92;;;1.20;;
27269;SDS011;14769;56.934;24.176;2022-09-09T03:42:03;2.35;;;0.90;;
27269;SDS011;14769;56.934;24.176;2022-09-09T03:43:05;1.80;;;1.08;;
27269;SDS011;14769;56.934;24.176;2022-09-09T03:44:07;2.25;;;1.17;;
27269;SDS011;14769;56.934;24.176;2022-09-09T03:45:09;2.95;;;1.20;;
27269;SDS011;14769;56.934;24.176;2022-09-09T03:46:14;4.40;;;1.30;;
27269;SDS011;14769;56.934;24.176;2022-09-09T03:47:21;2.45;;;0.82;;
27269;SDS011;14769;56.934;24.176;2022-09-09T03:48:23;3.13;;;1.17;;
27269;SDS011;14769;56.934;24.176;2022-09-09T03:49:30;1.45;;;1.00;;
27269;SDS011;14769;56.934;24.176;2022-09-09T03:50:35;1.30;;;1.20;;
27269;SDS011;14769;56.934;24.176;2022-09-09T03:51:49;3.00;;;1.20;;
27269;SDS011;14769;56.934;24.176;2022-09-09T03:52:51;3.88;;;1.40;;
27269;SDS011;14769;56.934;24.176;2022-09-09T03:53:55;3.58;;;1.30;;
27269;SDS011;14769;56.934;24.176;2022-09-09T03:55:05;1.25;;;1.10;;
27269;SDS011;14769;56.934;24.176;2022-09-09T03:56:09;1.77;;;1.20;;
27269;SDS011;14769;56.934;24.176;2022-09-09T03:57:14;1.65;;;1.20;;
27269;SDS011;14769;56.934;24.176;2022-09-09T03:58:28;3.70;;;1.40;;
27269;SDS011;14769;56.934;24.176;2022-09-09T03:59:36;3.53;;;1.08;;
27269;SDS011;14769;56.934;24.176;2022-09-09T04:00:38;4.70;;;1.40;;
27269;SDS011;14769;56.934;24.176;2022-09-09T04:01:46;2.55;;;1.20;;
27269;SDS011;14769;56.934;24.176;2022-09-09T04:02:48;2.60;;;1.20;;
27269;SDS011;14769;56.934;24.176;2022-09-09T04:03:51;2.55;;;0.93;;
27269;SDS011;14769;56.934;24.176;2022-09-09T04:04:54;3.28;;;1.25;;
27269;SDS011;14769;56.934;24.176;2022-09-09T04:05:57;3.63;;;1.40;;
27269;SDS011;14769;56.934;24.176;2022-09-09T04:07:00;3.78;;;1.30;;
27269;SDS011;14769;56.934;24.176;2022-09-09T04:08:02;3.05;;;1.30;;
27269;SDS011;14769;56.934;24.176;2022-09-09T04:09:04;1.30;;;1.13;;
27269;SDS011;14769;56.934;24.176;2022-09-09T04:10:06;4.13;;;1.83;;
27269;SDS011;14769;56.934;24.176;2022-09-09T04:11:09;3.17;;;1.40;;
27269;SDS011;14769;56.934;24.176;2022-09-09T04:12:11;2.92;;;1.60;;
27269;SDS011;14769;56.934;24.176;2022-09-09T04:13:14;7.07;;;2.30;;
27269;SDS011;14769;56.934;24.176;2022-09-09T04:14:19;5.55;;;2.47;;
27269;SDS011;14769;56.934;24.176;2022-09-09T04:15:21;3.47;;;2.28;;
27269;SDS011;14769;56.934;24.176;2022-09-09T04:16:23;3.00;;;2.08;;
27269;SDS011;14769;56.934;24.176;2022-09-09T04:17:25;3.50;;;2.15;;
27269;SDS011;14769;56.934;24.176;2022-09-09T04:18:27;6.35;;;2.10;;
27269;SDS011;14769;56.934;24.176;2022-09-09T04:21:53;5.60;;;3.15;;
27269;SDS011;14769;56.934;24.176;2022-09-09T04:22:55;6.32;;;1.95;;
27269;SDS011;14769;56.934;24.176;2022-09-09T04:23:57;3.58;;;1.55;;
27269;SDS011;14769;56.934;24.176;2022-09-09T04:24:58;2.85;;;1.80;;
27269;SDS011;14769;56.934;24.176;2022-09-09T04:26:01;3.78;;;1.65;;
27269;SDS011;14769;56.934;24.176;2022-09-09T04:27:04;3.63;;;1.88;;
27269;SDS011;14769;56.934;24.176;2022-09-09T04:28:06;3.00;;;1.70;;
27269;SDS011;14769;56.934;24.176;2022-09-09T04:29:08;3.70;;;1.70;;
27269;SDS011;14769;56.934;24.176;2022-09-09T04:30:10;3.55;;;1.45;;
27269;SDS011;14769;56.934;24.176;2022-09-09T04:31:17;2.33;;;1.40;;
27269;SDS011;14769;56.934;24.176;2022-09-09T04:32:22;2.97;;;1.80;;
27269;SDS011;14769;56.934;24.176;2022-09-09T04:33:27;2.83;;;1.90;;
27269;SDS011;14769;56.934;24.176;2022-09-09T04:34:29;2.28;;;1.60;;
27269;SDS011;14769;56.934;24.176;2022-09-09T04:35:32;2.45;;;1.50;;
27269;SDS011;14769;56.934;24.176;2022-09-09T04:36:36;3.35;;;1.50;;
27269;SDS011;14769;56.934;24.176;2022-09-09T04:37:39;5.00;;;1.58;;
27269;SDS011;14769;56.934;24.176;2022-09-09T04:38:42;2.25;;;1.75;;
27269;SDS011;14769;56.934;24.176;2022-09-09T04:39:47;2.00;;;1.30;;
27269;SDS011;14769;56.934;24.176;2022-09-09T04:40:49;1.65;;;1.25;;
27269;SDS011;14769;56.934;24.176;2022-09-09T04:41:53;2.72;;;1.25;;
27269;SDS011;14769;56.934;24.176;2022-09-09T04:42:57;4.95;;;2.22;;
27269;SDS011;14769;56.934;24.176;2022-09-09T04:44:00;5.38;;;1.50;;
27269;SDS011;14769;56.934;24.176;2022-09-09T04:45:02;9.07;;;1.75;;
27269;SDS011;14769;56.934;24.176;2022-09-09T04:46:05;3.03;;;1.70;;
27269;SDS011;14769;56.934;24.176;2022-09-09T04:47:07;2.60;;;1.90;;
27269;SDS011;14769;56.934;24.176;2022-09-09T04:48:10;6.55;;;1.80;;
27269;SDS011;14769;56.934;24.176;2022-09-09T04:49:13;6.10;;;1.77;;
27269;SDS011;14769;56.934;24.176;2022-09-09T04:50:15;1.85;;;1.50;;
27269;SDS011;14769;56.934;24.176;2022-09-09T04:51:20;2.20;;;1.58;;
27269;SDS011;14769;56.934;24.176;2022-09-09T04:52:28;6.57;;;2.03;;
27269;SDS011;14769;56.934;24.176;2022-09-09T04:53:30;3.67;;;1.85;;
27269;SDS011;14769;56.934;24.176;2022-09-09T04:54:37;2.55;;;1.30;;
27269;SDS011;14769;56.934;24.176;2022-09-09T04:55:51;2.05;;;1.48;;
27269;SDS011;14769;56.934;24.176;2022-09-09T04:56:57;2.45;;;1.45;;
27269;SDS011;14769;56.934;24.176;2022-09-09T04:58:12;3.75;;;1.77;;
27269;SDS011;14769;56.934;24.176;2022-09-09T04:59:43;3.15;;;1.50;;
27269;SDS011;14769;56.934;24.176;2022-09-09T05:00:48;5.10;;;1.55;;
27269;SDS011;14769;56.934;24.176;2022-09-09T05:01:55;2.13;;;1.50;;
27269;SDS011;14769;56.934;24.176;2022-09-09T05:03:07;2.20;;;1.55;;
27269;SDS011;14769;56.934;24.176;2022-09-09T05:04:12;3.42;;;1.13;;
27269;SDS011;14769;56.934;24.176;2022-09-09T05:05:14;3.20;;;1.50;;
27269;SDS011;14769;56.934;24.176;2022-09-09T05:06:18;3.30;;;1.77;;
27269;SDS011;14769;56.934;24.176;2022-09-09T05:07:30;2.67;;;1.38;;
27269;SDS011;14769;56.934;24.176;2022-09-09T05:08:44;3.85;;;1.65;;
27269;SDS011;14769;56.934;24.176;2022-09-09T05:09:48;3.40;;;1.80;;
27269;SDS011;14769;56.934;24.176;2022-09-09T05:10:51;4.47;;;1.52;;
27269;SDS011;14769;56.934;24.176;2022-09-09T05:11:54;3.85;;;1.55;;
27269;SDS011;14769;56.934;24.176;2022-09-09T05:12:58;3.10;;;1.80;;
27269;SDS011;14769;56.934;24.176;2022-09-09T05:14:01;5.90;;;1.65;;
27269;SDS011;14769;56.934;24.176;2022-09-09T05:15:05;4.40;;;1.40;;
27269;SDS011;14769;56.934;24.176;2022-09-09T05:16:08;2.40;;;1.58;;
27269;SDS011;14769;56.934;24.176;2022-09-09T05:17:12;3.67;;;1.75;;
27269;SDS011;14769;56.934;24.176;2022-09-09T05:18:15;2.88;;;1.70;;
27269;SDS011;14769;56.934;24.176;2022-09-09T05:19:20;6.80;;;1.50;;
27269;SDS011;14769;56.934;24.176;2022-09-09T05:20:22;6.85;;;2.08;;
27269;SDS011;14769;56.934;24.176;2022-09-09T05:21:25;3.22;;;1.65;;
27269;SDS011;14769;56.934;24.176;2022-09-09T05:22:27;3.88;;;1.60;;
27269;SDS011;14769;56.934;24.176;2022-09-09T05:23:30;4.32;;;1.80;;
27269;SDS011;14769;56.934;24.176;2022-09-09T05:24:33;5.47;;;1.83;;
27269;SDS011;14769;56.934;24.176;2022-09-09T05:25:38;3.58;;;1.95;;
27269;SDS011;14769;56.934;24.176;2022-09-09T05:26:43;3.45;;;2.10;;
27269;SDS011;14769;56.934;24.176;2022-09-09T05:27:45;2.88;;;1.85;;
27269;SDS011;14769;56.934;24.176;2022-09-09T05:28:47;3.55;;;1.80;;
27269;SDS011;14769;56.934;24.176;2022-09-09T05:29:49;3.83;;;2.05;;
27269;SDS011;14769;56.934;24.176;2022-09-09T05:30:55;3.78;;;1.67;;
27269;SDS011;14769;56.934;24.176;2022-09-09T05:32:01;10.38;;;2.05;;
27269;SDS011;14769;56.934;24.176;2022-09-09T05:33:04;3.55;;;1.88;;
27269;SDS011;14769;56.934;24.176;2022-09-09T05:34:07;5.85;;;2.28;;
27269;SDS011;14769;56.934;24.176;2022-09-09T05:35:09;2.78;;;1.83;;
27269;SDS011;14769;56.934;24.176;2022-09-09T05:36:19;5.43;;;2.28;;
27269;SDS011;14769;56.934;24.176;2022-09-09T05:37:21;4.95;;;1.73;;
27269;SDS011;14769;56.934;24.176;2022-09-09T05:38:25;2.28;;;1.52;;
27269;SDS011;14769;56.934;24.176;2022-09-09T05:39:29;3.38;;;1.63;;
27269;SDS011;14769;56.934;24.176;2022-09-09T05:40:31;3.50;;;2.08;;
27269;SDS011;14769;56.934;24.176;2022-09-09T05:41:32;3.90;;;1.70;;
27269;SDS011;14769;56.934;24.176;2022-09-09T05:42:36;5.30;;;1.60;;
27269;SDS011;14769;56.934;24.176;2022-09-09T05:43:38;2.50;;;2.00;;
27269;SDS011;14769;56.934;24.176;2022-09-09T05:44:40;3.92;;;1.98;;
27269;SDS011;14769;56.934;24.176;2022-09-09T05:45:43;2.65;;;1.73;;
27269;SDS011;14769;56.934;24.176;2022-09-09T05:46:45;5.10;;;2.00;;
27269;SDS011;14769;56.934;24.176;2022-09-09T05:47:54;3.17;;;1.42;;
27269;SDS011;14769;56.934;24.176;2022-09-09T05:49:08;6.03;;;1.90;;
27269;SDS011;14769;56.934;24.176;2022-09-09T05:50:10;3.40;;;1.98;;
27269;SDS011;14769;56.934;24.176;2022-09-09T05:51:12;4.88;;;2.22;;
27269;SDS011;14769;56.934;24.176;2022-09-09T05:52:17;3.30;;;1.80;;
27269;SDS011;14769;56.934;24.176;2022-09-09T05:53:19;5.05;;;1.92;;
27269;SDS011;14769;56.934;24.176;2022-09-09T05:54:21;4.57;;;1.80;;
27269;SDS011;14769;56.934;24.176;2022-09-09T05:55:23;4.28;;;2.20;;
27269;SDS011;14769;56.934;24.176;2022-09-09T05:56:27;3.10;;;1.60;;
27269;SDS011;14769;56.934;24.176;2022-09-09T05:57:30;4.38;;;1.80;;
27269;SDS011;14769;56.934;24.176;2022-09-09T05:58:33;4.22;;;1.85;;
27269;SDS011;14769;56.934;24.176;2022-09-09T05:59:36;3.10;;;1.60;;
27269;SDS011;14769;56.934;24.176;2022-09-09T06:00:38;3.15;;;1.50;;
27269;SDS011;14769;56.934;24.176;2022-09-09T06:01:40;4.13;;;1.50;;
27269;SDS011;14769;56.934;24.176;2022-09-09T06:02:42;4.95;;;1.42;;
27269;SDS011;14769;56.934;24.176;2022-09-09T06:03:46;5.95;;;1.67;;
27269;SDS011;14769;56.934;24.176;2022-09-09T06:04:48;3.55;;;1.63;;
27269;SDS011;14769;56.934;24.176;2022-09-09T06:05:56;2.75;;;1.33;;
27269;SDS011;14769;56.934;24.176;2022-09-09T06:07:02;5.38;;;1.58;;
27269;SDS011;14769;56.934;24.176;2022-09-09T06:08:03;6.00;;;1.90;;
27269;SDS011;14769;56.934;24.176;2022-09-09T06:09:06;1.83;;;1.58;;
27269;SDS011;14769;56.934;24.176;2022-09-09T06:10:11;4.50;;;1.67;;
27269;SDS011;14769;56.934;24.176;2022-09-09T06:11:17;4.35;;;1.60;;
27269;SDS011;14769;56.934;24.176;2022-09-09T06:12:20;5.30;;;1.60;;
27269;SDS011;14769;56.934;24.176;2022-09-09T06:13:22;2.28;;;1.48;;
27269;SDS011;14769;56.934;24.176;2022-09-09T06:14:25;2.92;;;1.45;;
27269;SDS011;14769;56.934;24.176;2022-09-09T06:15:28;5.68;;;1.40;;
27269;SDS011;14769;56.934;24.176;2022-09-09T06:16:32;3.40;;;1.55;;
27269;SDS011;14769;56.934;24.176;2022-09-09T06:17:34;3.72;;;1.90;;
27269;SDS011;14769;56.934;24.176;2022-09-09T06:18:37;4.38;;;2.30;;
27269;SDS011;14769;56.934;24.176;2022-09-09T06:19:39;6.03;;;1.92;;
27269;SDS011;14769;56.934;24.176;2022-09-09T06:20:40;7.63;;;1.85;;
27269;SDS011;14769;56.934;24.176;2022-09-09T06:21:42;5.07;;;1.70;;
27269;SDS011;14769;56.934;24.176;2022-09-09T06:22:45;6.97;;;1.70;;
27269;SDS011;14769;56.934;24.176;2022-09-09T06:23:49;2.55;;;1.52;;
27269;SDS011;14769;56.934;24.176;2022-09-09T06:25:00;4.22;;;1.90;;
27269;SDS011;14769;56.934;24.176;2022-09-09T06:26:06;6.43;;;1.88;;
27269;SDS011;14769;56.934;24.176;2022-09-09T06:27:18;4.20;;;1.73;;
27269;SDS011;14769;56.934;24.176;2022-09-09T06:28:20;4.10;;;1.40;;
27269;SDS011;14769;56.934;24.176;2022-09-09T06:29:22;1.88;;;1.30;;
27269;SDS011;14769;56.934;24.176;2022-09-09T06:30:23;2.92;;;1.17;;
27269;SDS011;14769;56.934;24.176;2022-09-09T06:31:26;3.03;;;1.33;;
27269;SDS011;14769;56.934;24.176;2022-09-09T06:32:31;4.65;;;1.98;;
27269;SDS011;14769;56.934;24.176;2022-09-09T06:33:38;3.95;;;1.27;;
27269;SDS011;14769;56.934;24.176;2022-09-09T06:34:42;3.55;;;1.90;;
27269;SDS011;14769;56.934;24.176;2022-09-09T06:35:50;4.30;;;1.65;;
27269;SDS011;14769;56.934;24.176;2022-09-09T06:36:54;5.05;;;2.10;;
27269;SDS011;14769;56.934;24.176;2022-09-09T06:37:59;2.03;;;1.30;;
27269;SDS011;14769;56.934;24.176;2022-09-09T06:39:00;4.88;;;1.58;;
27269;SDS011;14769;56.934;24.176;2022-09-09T06:40:02;4.57;;;1.73;;
27269;SDS011;14769;56.934;24.176;2022-09-09T06:41:04;5.35;;;2.00;;
27269;SDS011;14769;56.934;24.176;2022-09-09T06:42:06;6.10;;;2.22;;
27269;SDS011;14769;56.934;24.176;2022-09-09T06:43:09;5.00;;;3.10;;
27269;SDS011;14769;56.934;24.176;2022-09-09T06:44:11;9.40;;;4.47;;
27269;SDS011;14769;56.934;24.176;2022-09-09T06:45:13;7.53;;;3.53;;
27269;SDS011;14769;56.934;24.176;2022-09-09T06:46:16;4.72;;;2.17;;
27269;SDS011;14769;56.934;24.176;2022-09-09T06:47:23;3.90;;;1.63;;
27269;SDS011;14769;56.934;24.176;2022-09-09T06:48:26;2.35;;;1.40;;
27269;SDS011;14769;56.934;24.176;2022-09-09T06:49:29;2.45;;;1.42;;
27269;SDS011;14769;56.934;24.176;2022-09-09T06:50:31;1.55;;;1.40;;
27269;SDS011;14769;56.934;24.176;2022-09-09T06:51:36;3.70;;;1.33;;
27269;SDS011;14769;56.934;24.176;2022-09-09T06:53:49;3.55;;;1.38;;
27269;SDS011;14769;56.934;24.176;2022-09-09T06:54:54;1.48;;;1.38;;
27269;SDS011;14769;56.934;24.176;2022-09-09T06:55:56;2.30;;;1.33;;
27269;SDS011;14769;56.934;24.176;2022-09-09T06:56:58;2.83;;;1.23;;
27269;SDS011;14769;56.934;24.176;2022-09-09T06:58:21;3.50;;;1.63;;
27269;SDS011;14769;56.934;24.176;2022-09-09T06:59:25;1.90;;;1.17;;
27269;SDS011;14769;56.934;24.176;2022-09-09T07:00:28;2.35;;;1.17;;
27269;SDS011;14769;56.934;24.176;2022-09-09T07:01:32;3.20;;;1.50;;
27269;SDS011;14769;56.934;24.176;2022-09-09T07:02:36;3.40;;;1.08;;
27269;SDS011;14769;56.934;24.176;2022-09-09T07:03:41;1.75;;;1.02;;
27269;SDS011;14769;56.934;24.176;2022-09-09T07:04:43;3.05;;;1.30;;
27269;SDS011;14769;56.934;24.176;2022-09-09T07:05:53;4.88;;;1.23;;
27269;SDS011;14769;56.934;24.176;2022-09-09T07:06:56;2.47;;;1.20;;
27269;SDS011;14769;56.934;24.176;2022-09-09T07:07:57;1.80;;;1.23;;
27269;SDS011;14769;56.934;24.176;2022-09-09T07:09:00;4.05;;;0.85;;
27269;SDS011;14769;56.934;24.176;2022-09-09T07:10:05;4.80;;;1.52;;
27269;SDS011;14769;56.934;24.176;2022-09-09T07:11:08;1.55;;;1.20;;
27269;SDS011;14769;56.934;24.176;2022-09-09T07:12:12;3.20;;;1.45;;
27269;SDS011;14769;56.934;24.176;2022-09-09T07:13:14;3.00;;;1.60;;
27269;SDS011;14769;56.934;24.176;2022-09-09T07:14:16;2.03;;;1.27;;
27269;SDS011;14769;56.934;24.176;2022-09-09T07:15:18;1.42;;;1.33;;
27269;SDS011;14769;56.934;24.176;2022-09-09T07:16:21;2.78;;;1.52;;